Time;durP1;ratioP1;P1;durP2;ratioP2;P2;SDS_P1;SDS_P2;PMS_P1;PMS_P2;Temp;Humidity;BMP_temperature;BMP_pressure;BME280_temperature;BME280_humidity;BME280_pressure;Samples;Min_cycle;Max_cycle;Signal;HPM_P1;HPM_P2
2021/01/13 05:01:23;;;;;;;6.82;2.65;;;;;;;3.00;74.14;99480.53;5680285;23;20045;-56
2021/01/13 05:04:41;;;;;;;5.57;1.73;;;;;;;2.62;72.52;99479.84;4808710;29;20267;-56
2021/01/13 05:07:28;;;;;;;7.00;1.60;;;;;;;2.72;71.63;99478.53;4833938;29;20038;-56
2021/01/13 05:10:15;;;;;;;4.95;1.30;;;;;;;2.61;73.61;99486.19;4847723;29;20066;-56
2021/01/13 05:12:48;;;;;;;10.38;1.55;;;;;;;2.55;71.64;99483.25;4829579;29;20343;-52
2021/01/13 05:15:20;;;;;;;9.73;2.00;;;;;;;2.57;71.96;99484.91;4831453;29;20054;-55
2021/01/13 05:17:58;;;;;;;8.35;1.83;;;;;;;2.35;72.44;99484.81;4813887;29;20042;-56
2021/01/13 05:20:28;;;;;;;7.53;1.85;;;;;;;2.88;72.34;99477.50;4811658;29;20050;-54
2021/01/13 05:22:56;;;;;;;7.90;1.48;;;;;;;2.57;72.92;99482.22;4813904;29;20442;-54
2021/01/13 05:25:41;;;;;;;8.07;1.65;;;;;;;2.70;72.94;99477.06;4815161;29;20062;-54
2021/01/13 05:28:08;;;;;;;7.82;1.75;;;;;;;2.49;72.35;99469.81;4815388;29;20042;-54
2021/01/13 05:30:36;;;;;;;5.00;1.60;;;;;;;3.15;78.69;99474.09;4825816;29;20046;-54
2021/01/13 05:33:11;;;;;;;7.43;1.50;;;;;;;2.82;73.10;99478.25;4795201;29;20082;-55
2021/01/13 05:35:43;;;;;;;12.93;2.08;;;;;;;2.88;71.75;99474.84;4801196;29;20136;-53
2021/01/13 05:38:18;;;;;;;10.38;2.03;;;;;;;2.43;72.26;99479.38;4809493;29;20046;-54
2021/01/13 05:40:53;;;;;;;10.38;1.98;;;;;;;2.95;73.88;99470.41;4821269;29;20446;-55
2021/01/13 05:43:21;;;;;;;8.35;1.77;;;;;;;2.56;72.39;99486.75;4815955;29;20049;-55
2021/01/13 05:45:49;;;;;;;9.00;1.63;;;;;;;2.60;72.18;99477.34;4812619;29;20133;-55
2021/01/13 05:48:21;;;;;;;9.45;3.03;;;;;;;2.84;71.80;99487.72;4799070;29;20046;-54
2021/01/13 05:50:52;;;;;;;7.63;2.10;;;;;;;2.91;77.30;99490.47;4797240;29;20501;-54
2021/01/13 05:53:18;;;;;;;9.45;1.95;;;;;;;3.33;73.69;99489.72;4814780;29;20046;-53
2021/01/13 05:55:48;;;;;;;6.97;2.08;;;;;;;2.84;74.68;99482.38;4798955;29;20129;-55
2021/01/13 05:58:14;;;;;;;8.85;2.13;;;;;;;2.64;74.25;99491.16;4812908;29;20057;-55
2021/01/13 06:00:40;;;;;;;8.10;2.65;;;;;;;2.37;74.10;99496.13;4799956;29;20505;-55
2021/01/13 06:03:10;;;;;;;12.52;2.25;;;;;;;2.76;71.93;99497.69;4829825;29;20416;-54
2021/01/13 06:05:48;;;;;;;6.13;2.20;;;;;;;3.10;71.93;99497.91;4813753;29;20057;-55
2021/01/13 06:08:14;;;;;;;2.65;1.33;;;;;;;3.91;79.71;99490.44;4798052;29;20118;-54
2021/01/13 06:10:41;;;;;;;5.28;1.77;;;;;;;3.57;74.18;99480.50;4834308;29;20723;-55
2021/01/13 06:13:07;;;;;;;14.23;1.90;;;;;;;2.93;75.39;99493.78;4816718;29;20392;-54
2021/01/13 06:15:34;;;;;;;7.38;1.98;;;;;;;3.44;75.30;99491.88;4828504;29;20536;-54
2021/01/13 06:18:01;;;;;;;11.23;2.40;;;;;;;2.58;72.36;99497.22;4815155;29;20078;-54
2021/01/13 06:20:29;;;;;;;9.30;2.30;;;;;;;2.62;73.24;99503.88;4798473;29;20043;-54
2021/01/13 06:22:57;;;;;;;9.40;2.15;;;;;;;2.71;72.13;99505.41;4801041;29;20057;-56
2021/01/13 06:25:24;;;;;;;11.55;2.20;;;;;;;2.64;72.42;99509.84;4799578;29;20098;-54
2021/01/13 06:28:22;;;;;;;9.20;2.83;;;;;;;3.14;73.60;99501.81;4812234;29;20059;-54
2021/01/13 06:30:59;;;;;;;15.07;2.05;;;;;;;2.73;73.08;99514.06;4815163;29;20416;-55
2021/01/13 06:33:25;;;;;;;10.20;2.00;;;;;;;2.82;72.97;99508.44;4817461;29;20057;-55
2021/01/13 06:36:00;;;;;;;8.25;2.03;;;;;;;2.78;72.64;99514.31;4801591;29;20055;-55
2021/01/13 06:38:49;;;;;;;7.43;1.98;;;;;;;2.86;73.32;99506.22;4820184;29;20560;-55
2021/01/13 06:41:15;;;;;;;4.93;1.77;;;;;;;2.97;72.78;99512.94;4813744;29;20424;-55
2021/01/13 06:44:05;;;;;;;5.57;2.17;;;;;;;2.76;72.55;99514.53;4807505;29;20224;-55
2021/01/13 06:46:33;;;;;;;8.27;2.35;;;;;;;2.87;76.31;99510.56;4811370;29;20078;-55
2021/01/13 06:49:18;;;;;;;5.90;1.73;;;;;;;3.40;77.56;99519.16;4804194;29;20039;-56
2021/01/13 06:51:45;;;;;;;11.07;1.98;;;;;;;2.75;72.46;99512.88;4801294;29;20105;-57
2021/01/13 06:54:15;;;;;;;12.10;2.53;;;;;;;2.76;74.15;99519.03;4809212;29;20103;-55
2021/01/13 06:56:58;;;;;;;5.95;2.40;;;;;;;2.73;71.71;99519.41;4826191;29;20392;-54
2021/01/13 06:59:25;;;;;;;11.20;1.60;;;;;;;2.61;73.50;99512.88;4832779;29;20099;-54
2021/01/13 07:01:51;;;;;;;8.93;3.30;;;;;;;3.19;76.26;99509.28;4806412;29;20049;-55
2021/01/13 07:04:17;;;;;;;12.40;1.80;;;;;;;2.54;74.54;99510.09;4797502;29;20046;-54
2021/01/13 07:07:02;;;;;;;5.68;1.73;;;;;;;3.26;74.59;99502.97;4826832;29;20168;-55
2021/01/13 07:09:42;;;;;;;10.15;2.05;;;;;;;2.99;72.96;99510.91;4827744;29;20038;-54
2021/01/13 07:12:14;;;;;;;7.13;2.00;;;;;;;2.71;73.56;99513.41;4804698;29;20080;-56
2021/01/13 07:14:43;;;;;;;10.55;2.50;;;;;;;2.84;76.75;99518.94;4817567;29;20478;-55
2021/01/13 07:17:15;;;;;;;8.65;1.77;;;;;;;2.97;72.99;99520.94;4806513;29;20057;-54
2021/01/13 07:19:53;;;;;;;12.18;2.38;;;;;;;2.72;74.13;99526.59;4830233;29;20055;-56
2021/01/13 07:22:20;;;;;;;8.65;1.92;;;;;;;2.65;73.86;99528.34;4829522;29;20504;-55
2021/01/13 07:24:47;;;;;;;13.15;3.08;;;;;;;3.00;73.41;99523.25;4830813;29;20046;-55
2021/01/13 07:27:14;;;;;;;11.88;2.10;;;;;;;2.63;73.85;99517.03;4830343;29;20417;-55
2021/01/13 07:29:40;;;;;;;6.25;1.75;;;;;;;3.03;71.96;99525.50;4793486;29;20042;-56
2021/01/13 07:32:08;;;;;;;14.38;2.05;;;;;;;3.03;71.74;99518.34;4812544;29;20524;-53
2021/01/13 07:34:36;;;;;;;12.00;1.92;;;;;;;2.63;72.33;99527.69;4814702;29;20050;-54
2021/01/13 07:37:11;;;;;;;8.80;2.30;;;;;;;3.05;72.18;99526.16;4808652;29;20153;-55
2021/01/13 07:39:58;;;;;;;9.82;2.13;;;;;;;2.65;72.09;99530.19;4814795;29;20107;-55
2021/01/13 07:42:33;;;;;;;9.40;2.05;;;;;;;2.93;71.52;99520.47;4832971;29;20531;-54
2021/01/13 07:45:21;;;;;;;9.90;1.60;;;;;;;3.10;72.60;99529.13;4830766;29;20056;-55
2021/01/13 07:47:56;;;;;;;7.13;1.98;;;;;;;2.64;72.68;99526.69;4826717;29;20047;-55
2021/01/13 07:50:22;;;;;;;10.02;2.05;;;;;;;2.88;70.82;99528.22;4816302;29;20083;-55
2021/01/13 07:52:51;;;;;;;5.47;1.73;;;;;;;2.74;71.50;99526.41;4831259;29;20035;-55
2021/01/13 07:55:20;;;;;;;10.57;1.85;;;;;;;2.52;73.27;99525.50;4850384;29;20423;-54
2021/01/13 07:57:55;;;;;;;8.48;1.70;;;;;;;2.66;72.15;99527.31;4850954;29;20037;-54
2021/01/13 08:00:33;;;;;;;10.80;1.60;;;;;;;2.52;72.26;99523.66;4834129;29;20444;-55
2021/01/13 08:03:17;;;;;;;8.60;1.80;;;;;;;3.04;71.30;99532.50;4849984;29;20504;-55
2021/01/13 08:06:19;;;;;;;7.20;1.60;;;;;;;3.43;70.61;99521.47;4831457;29;20520;-54
2021/01/13 08:09:04;;;;;;;;;;;;;;;3.43;71.04;99518.78;4816479;29;20077;-54
2021/01/13 08:11:58;;;;;;;11.32;2.08;;;;;;;3.31;70.60;99523.81;4820192;29;19928;-55
2021/01/13 08:14:42;;;;;;;7.43;1.85;;;;;;;3.02;70.17;99529.19;4831771;29;20138;-55
2021/01/13 08:17:20;;;;;;;7.55;1.75;;;;;;;3.08;70.50;99534.63;4813059;29;20309;-55
2021/01/13 08:20:23;;;;;;;12.23;2.55;;;;;;;2.98;71.36;99523.44;4823394;23;20158;-54
2021/01/13 08:23:02;;;;;;;12.27;1.67;;;;;;;4.47;79.10;99519.84;4860020;29;20042;-54
2021/01/13 08:25:28;;;;;;;11.38;1.92;;;;;;;3.78;70.29;99523.25;4850431;29;20056;-55
2021/01/13 08:27:58;;;;;;;13.52;1.80;;;;;;;3.28;69.83;99525.00;4833796;29;20037;-53
2021/01/13 08:30:29;;;;;;;12.10;2.40;;;;;;;3.33;70.03;99527.13;4833979;29;20050;-52
2021/01/13 08:32:58;;;;;;;5.07;1.40;;;;;;;3.16;70.47;99539.03;4834818;29;20065;-55
2021/01/13 08:35:36;;;;;;;10.00;1.55;;;;;;;3.36;70.39;99524.03;4834761;29;20046;-53
2021/01/13 08:38:10;;;;;;;5.97;1.48;;;;;;;3.64;70.20;99521.47;4834987;29;20046;-53
2021/01/13 08:40:38;;;;;;;16.20;2.63;;;;;;;3.25;70.86;99514.69;4834776;29;20411;-53
2021/01/13 08:43:15;;;;;;;19.35;6.13;;;;;;;3.38;70.45;99515.84;4826669;29;20049;-53
2021/01/13 08:45:46;;;;;;;16.50;6.72;;;;;;;3.34;70.22;99519.94;4841369;29;20049;-56
2021/01/13 08:48:23;;;;;;;21.37;9.47;;;;;;;3.55;70.63;99515.41;4854808;29;20120;-57
2021/01/13 08:51:04;;;;;;;8.80;3.97;;;;;;;3.54;73.39;99513.75;4856496;29;20036;-54
2021/01/13 08:53:31;;;;;;;13.80;5.20;;;;;;;3.44;70.29;99520.44;4817564;29;20132;-53
2021/01/13 08:55:57;;;;;;;16.30;4.60;;;;;;;3.63;69.66;99517.97;4815533;29;20054;-55
2021/01/13 08:58:33;;;;;;;17.67;4.10;;;;;;;3.82;68.77;99516.47;4831171;29;20046;-53
2021/01/13 09:01:02;;;;;;;9.45;2.78;;;;;;;3.83;70.78;99523.47;4831535;29;20046;-55
2021/01/13 09:03:35;;;;;;;11.63;3.58;;;;;;;3.45;70.39;99514.09;4844303;29;20048;-53
2021/01/13 09:06:17;;;;;;;10.35;3.15;;;;;;;3.47;69.83;99515.53;4835718;29;20133;-53
2021/01/13 09:08:47;;;;;;;6.28;1.75;;;;;;;3.73;72.17;99514.97;4849020;29;20049;-54
2021/01/13 09:11:32;;;;;;;7.45;1.80;;;;;;;4.05;72.08;99510.91;4822658;29;20685;-54
2021/01/13 09:14:17;;;;;;;7.82;2.20;;;;;;;3.67;70.66;99509.56;4815696;29;20033;-54
2021/01/13 09:16:56;;;;;;;8.10;1.85;;;;;;;3.22;70.80;99512.41;4831505;29;20101;-55
2021/01/13 09:19:34;;;;;;;11.93;1.83;;;;;;;3.40;70.88;99517.31;4851419;29;20507;-55
2021/01/13 09:22:02;;;;;;;10.57;1.65;;;;;;;3.80;71.38;99517.72;4837995;29;20068;-55
2021/01/13 09:24:42;;;;;;;9.90;1.60;;;;;;;3.66;71.46;99513.25;4849163;29;20056;-54
2021/01/13 09:27:10;;;;;;;7.53;1.60;;;;;;;3.42;72.33;99512.63;4852807;29;20074;-54
2021/01/13 09:29:52;;;;;;;15.27;2.13;;;;;;;3.38;72.07;99515.84;4844723;29;20140;-54
2021/01/13 09:32:19;;;;;;;10.68;1.60;;;;;;;3.51;74.38;99513.31;4849229;29;20048;-55
2021/01/13 09:34:46;;;;;;;10.00;1.75;;;;;;;3.48;71.78;99516.34;4851044;29;20045;-55
2021/01/13 09:37:12;;;;;;;10.32;1.80;;;;;;;3.70;70.89;99511.81;4845034;29;20041;-55
2021/01/13 09:39:39;;;;;;;5.75;1.35;;;;;;;3.39;71.66;99514.81;4835978;29;20715;-54
2021/01/13 09:42:09;;;;;;;5.07;1.33;;;;;;;3.54;71.82;99518.28;4833708;29;20070;-55
2021/01/13 09:44:37;;;;;;;9.73;1.95;;;;;;;3.47;71.42;99512.84;4846279;29;20109;-54
2021/01/13 09:47:21;;;;;;;9.10;1.83;;;;;;;3.34;72.12;99511.91;4851680;29;20060;-54
2021/01/13 09:49:49;;;;;;;4.75;1.30;;;;;;;3.57;70.76;99515.25;4831837;29;20046;-54
2021/01/13 09:52:15;;;;;;;10.18;2.28;;;;;;;3.86;72.35;99515.06;4831800;29;20052;-53
2021/01/13 09:54:51;;;;;;;11.70;1.75;;;;;;;3.09;74.54;99535.47;4829627;29;20046;-54
2021/01/13 09:57:17;;;;;;;7.57;2.30;;;;;;;3.18;78.36;99523.66;4816636;29;20045;-54
2021/01/13 10:00:04;;;;;;;12.52;1.90;;;;;;;3.12;76.73;99527.06;4818539;29;20533;-54
2021/01/13 10:02:42;;;;;;;9.80;2.40;;;;;;;3.05;76.34;99526.16;4834280;29;20091;-53
2021/01/13 10:05:09;;;;;;;6.07;1.40;;;;;;;3.07;75.68;99516.13;4819704;29;20053;-54
2021/01/13 10:07:36;;;;;;;7.05;1.77;;;;;;;3.02;77.76;99513.19;4832805;29;20073;-54
2021/01/13 10:10:07;;;;;;;7.95;1.77;;;;;;;3.09;76.36;99509.59;4832605;29;20057;-54
2021/01/13 10:12:41;;;;;;;7.63;1.77;;;;;;;3.17;76.06;99504.13;4817489;29;20459;-54
2021/01/13 10:15:12;;;;;;;9.15;1.92;;;;;;;3.31;75.55;99497.09;4817376;29;20083;-54
2021/01/13 10:17:39;;;;;;;8.60;2.40;;;;;;;3.39;75.46;99494.28;4828896;29;20049;-53
2021/01/13 10:20:21;;;;;;;8.38;2.10;;;;;;;3.15;74.18;99489.28;4813494;29;20042;-55
2021/01/13 10:22:49;;;;;;;8.23;1.58;;;;;;;3.49;74.45;99491.28;4834224;29;20053;-54
2021/01/13 10:25:44;;;;;;;7.10;1.83;;;;;;;3.67;77.42;99485.50;4813189;29;20050;-55
2021/01/13 10:28:10;;;;;;;13.38;3.42;;;;;;;3.20;75.58;99479.72;4814352;29;20053;-54
2021/01/13 10:30:39;;;;;;;11.95;3.58;;;;;;;3.22;73.72;99485.69;4832160;29;20057;-53
2021/01/13 10:33:04;;;;;;;8.13;1.90;;;;;;;3.10;74.09;99489.06;4832915;29;20508;-55
2021/01/13 10:35:39;;;;;;;8.20;1.70;;;;;;;2.99;74.06;99489.53;4852173;29;20132;-53
2021/01/13 10:38:05;;;;;;;11.57;5.45;;;;;;;3.49;73.56;99484.09;4847238;29;20053;-54
2021/01/13 10:40:31;;;;;;;7.55;2.05;;;;;;;3.05;73.97;99483.44;4839254;29;20407;-54
2021/01/13 10:42:56;;;;;;;8.50;2.58;;;;;;;2.88;74.06;99494.31;4852187;29;20049;-53
2021/01/13 10:45:23;;;;;;;9.23;2.20;;;;;;;3.37;76.49;99474.94;4849870;29;20053;-54
2021/01/13 10:48:07;;;;;;;7.70;1.38;;;;;;;3.04;73.88;99492.47;4830970;29;20407;-54
2021/01/13 10:50:41;;;;;;;5.15;1.55;;;;;;;3.16;74.97;99493.63;4848024;29;20076;-54
2021/01/13 10:53:08;;;;;;;9.75;2.15;;;;;;;3.27;74.26;99477.94;4838814;29;20500;-55
2021/01/13 10:55:44;;;;;;;8.68;2.28;;;;;;;3.33;73.52;99470.19;4837894;29;20042;-53
2021/01/13 10:58:15;;;;;;;8.63;2.83;;;;;;;3.44;72.52;99475.84;4838238;29;20322;-54
2021/01/13 11:00:40;;;;;;;9.00;2.93;;;;;;;3.38;72.70;99471.25;4856759;29;20501;-54
2021/01/13 11:03:06;;;;;;;9.52;1.75;;;;;;;3.31;73.37;99469.53;4858500;29;20077;-55
2021/01/13 11:05:36;;;;;;;11.80;1.88;;;;;;;3.05;74.32;99486.94;4856122;29;20068;-53
2021/01/13 11:08:03;;;;;;;8.02;1.70;;;;;;;3.12;73.10;99473.66;4856017;29;20498;-54
2021/01/13 11:10:29;;;;;;;7.78;1.92;;;;;;;3.30;73.39;99471.38;4845538;29;20113;-54
2021/01/13 11:13:04;;;;;;;6.90;1.80;;;;;;;3.59;73.38;99473.91;4838923;29;20037;-54
2021/01/13 11:15:30;;;;;;;4.82;2.00;;;;;;;3.32;73.30;99474.69;4836937;29;20041;-55
2021/01/13 11:17:58;;;;;;;14.40;3.42;;;;;;;3.29;73.46;99472.41;4836223;29;20058;-54
2021/01/13 11:20:31;;;;;;;12.75;2.92;;;;;;;3.19;74.37;99461.22;4833570;29;20113;-55
2021/01/13 11:22:58;;;;;;;8.63;1.85;;;;;;;3.75;74.77;99451.44;4854222;29;20049;-54
2021/01/13 11:25:27;;;;;;;9.68;2.55;;;;;;;3.37;72.41;99455.41;4853832;29;20136;-54
2021/01/13 11:28:01;;;;;;;4.60;1.95;;;;;;;3.68;73.84;99444.41;4837027;29;20064;-54
2021/01/13 11:30:29;;;;;;;9.65;2.00;;;;;;;3.34;73.96;99450.47;4852898;29;20500;-54
2021/01/13 11:32:59;;;;;;;7.38;1.98;;;;;;;3.33;73.74;99444.28;4850702;29;20049;-55
2021/01/13 11:35:30;;;;;;;6.72;1.83;;;;;;;3.28;73.63;99439.50;4840680;29;20440;-54
2021/01/13 11:38:17;;;;;;;10.18;2.00;;;;;;;3.28;73.95;99436.84;4850440;29;20080;-54
2021/01/13 11:40:44;;;;;;;10.00;2.35;;;;;;;3.45;73.15;99429.41;4849948;29;20054;-54
2021/01/13 11:43:19;;;;;;;9.57;2.15;;;;;;;3.41;72.42;99424.63;4844299;29;20041;-55
2021/01/13 11:46:10;;;;;;;8.77;2.40;;;;;;;3.64;75.95;99426.06;4868177;29;20037;-53
2021/01/13 11:49:06;;;;;;;6.07;2.20;;;;;;;3.64;75.21;99419.88;4853995;29;20045;-55
2021/01/13 11:51:37;;;;;;;8.70;1.88;;;;;;;3.44;75.67;99424.25;4844986;29;20114;-55
2021/01/13 11:54:03;;;;;;;7.85;2.10;;;;;;;3.23;77.05;99422.41;4822077;29;20061;-54
2021/01/13 11:56:30;;;;;;;3.83;2.17;;;;;;;3.47;76.93;99424.66;4830856;29;20046;-54
2021/01/13 11:58:56;;;;;;;10.88;2.10;;;;;;;3.22;76.39;99416.25;4834062;29;20065;-55
2021/01/13 12:01:26;;;;;;;11.45;2.63;;;;;;;3.69;74.74;99417.47;4814799;29;20501;-52
2021/01/13 12:04:04;;;;;;;6.13;2.75;;;;;;;3.00;76.33;99411.91;4818195;29;20583;-54
2021/01/13 12:06:31;;;;;;;12.90;2.53;;;;;;;3.15;78.20;99407.34;4847575;29;20098;-54
2021/01/13 12:08:57;;;;;;;13.90;2.40;;;;;;;3.12;76.03;99399.69;4837145;29;20527;-54
2021/01/13 12:11:23;;;;;;;11.18;4.65;;;;;;;2.96;75.97;99409.81;4835850;29;20453;-54
2021/01/13 12:13:51;;;;;;;10.75;2.85;;;;;;;2.86;75.54;99416.28;4819736;29;20103;-53
2021/01/13 12:16:19;;;;;;;7.22;2.67;;;;;;;2.75;76.63;99402.63;4820004;29;20038;-53
2021/01/13 12:18:53;;;;;;;8.05;2.25;;;;;;;2.75;76.73;99416.78;4819458;29;20049;-56
2021/01/13 12:21:21;;;;;;;5.80;2.80;;;;;;;2.88;77.07;99416.09;4817007;29;20513;-54
2021/01/13 12:23:50;;;;;;;7.07;2.42;;;;;;;2.73;76.03;99405.47;4820411;29;20052;-53
2021/01/13 12:26:22;;;;;;;8.80;2.72;;;;;;;2.98;75.87;99407.78;4818718;29;20408;-55
2021/01/13 12:29:12;;;;;;;11.27;3.75;;;;;;;3.04;75.35;99407.84;4817880;29;20049;-55
2021/01/13 12:31:46;;;;;;;10.60;2.00;;;;;;;3.17;77.02;99399.13;4853782;29;20065;-54
2021/01/13 12:34:26;;;;;;;9.68;2.30;;;;;;;4.03;75.33;99389.09;4837106;29;20487;-58
2021/01/13 12:36:54;;;;;;;8.05;2.85;;;;;;;3.26;74.79;99379.28;4850587;29;20490;-55
2021/01/13 12:39:27;;;;;;;7.85;2.50;;;;;;;3.16;75.96;99384.13;4851331;29;20052;-54
2021/01/13 12:41:54;;;;;;;9.55;2.47;;;;;;;3.05;74.99;99381.97;4835995;29;20132;-53
2021/01/13 12:44:22;;;;;;;8.45;3.00;;;;;;;3.54;76.57;99374.78;4852250;29;20121;-53
2021/01/13 12:46:47;;;;;;;5.50;2.63;;;;;;;3.46;74.78;99376.78;4835961;29;20048;-53
2021/01/13 12:49:13;;;;;;;12.43;2.75;;;;;;;3.63;77.06;99375.47;4836365;29;20041;-54
2021/01/13 12:51:38;;;;;;;10.15;3.70;;;;;;;3.31;73.82;99376.03;4852637;29;20423;-54
2021/01/13 12:54:04;;;;;;;4.65;2.17;;;;;;;3.37;74.54;99378.75;4852199;29;20407;-54
2021/01/13 12:56:32;;;;;;;8.00;2.58;;;;;;;3.56;73.70;99374.59;4852679;29;20514;-55
2021/01/13 12:58:59;;;;;;;6.30;2.40;;;;;;;3.67;74.11;99373.25;4835790;29;20044;-54
2021/01/13 13:01:26;;;;;;;9.77;3.00;;;;;;;3.28;73.87;99374.56;4837514;29;20049;-53
2021/01/13 13:03:53;;;;;;;9.95;3.33;;;;;;;3.22;73.92;99362.84;4821121;29;20053;-55
2021/01/13 13:06:29;;;;;;;9.73;3.17;;;;;;;3.39;74.40;99368.72;4836460;29;20504;-55
2021/01/13 13:08:55;;;;;;;11.15;3.55;;;;;;;3.50;73.43;99367.34;4837378;29;20129;-54
2021/01/13 13:11:22;;;;;;;11.45;3.25;;;;;;;3.30;74.65;99363.69;4835981;29;20097;-54
2021/01/13 13:13:48;;;;;;;7.28;3.78;;;;;;;3.36;73.27;99366.41;4837547;29;20041;-54
2021/01/13 13:16:16;;;;;;;6.68;2.70;;;;;;;3.42;73.82;99362.16;4835565;29;20042;-55
2021/01/13 13:18:41;;;;;;;7.13;2.47;;;;;;;4.04;74.54;99369.38;4834490;29;20049;-53
2021/01/13 13:21:12;;;;;;;14.60;4.03;;;;;;;3.40;74.35;99375.69;4833067;29;20038;-53
2021/01/13 13:23:38;;;;;;;6.90;3.10;;;;;;;3.36;74.61;99368.25;4835815;29;20052;-54
2021/01/13 13:26:04;;;;;;;12.52;2.95;;;;;;;3.39;76.33;99370.56;4837915;29;20073;-53
2021/01/13 13:28:30;;;;;;;7.20;3.35;;;;;;;3.76;74.12;99359.53;4861103;29;20129;-55
2021/01/13 13:30:56;;;;;;;7.88;3.60;;;;;;;3.73;74.49;99351.88;4825651;29;20072;-55
2021/01/13 13:33:22;;;;;;;11.30;4.10;;;;;;;4.18;73.15;99360.34;4822255;29;20190;-53
2021/01/13 13:35:47;;;;;;;10.57;3.22;;;;;;;4.81;75.28;99353.81;4836486;29;20074;-53
2021/01/13 13:38:13;;;;;;;5.97;2.97;;;;;;;4.18;73.10;99349.66;4832333;29;20060;-53
2021/01/13 13:40:38;;;;;;;4.50;2.47;;;;;;;3.60;73.73;99352.63;4853265;29;20349;-55
2021/01/13 13:43:04;;;;;;;6.53;2.72;;;;;;;4.03;72.65;99349.81;4810135;29;20092;-54
2021/01/13 13:45:29;;;;;;;7.60;2.63;;;;;;;3.91;73.09;99341.53;4817354;29;20065;-54
2021/01/13 13:47:55;;;;;;;8.82;2.20;;;;;;;4.26;74.29;99352.19;4817547;29;20529;-53
2021/01/13 13:50:21;;;;;;;7.10;3.38;;;;;;;3.79;73.19;99342.28;4812616;29;20344;-54
2021/01/13 13:52:47;;;;;;;7.45;2.00;;;;;;;3.59;73.20;99356.31;4823773;29;20042;-53
2021/01/13 13:55:12;;;;;;;9.02;2.33;;;;;;;3.82;73.49;99345.34;4837357;29;20041;-56
2021/01/13 13:57:39;;;;;;;8.15;2.25;;;;;;;3.83;72.11;99351.53;4832259;29;20045;-54
2021/01/13 14:00:05;;;;;;;9.68;3.15;;;;;;;3.60;75.63;99341.94;4835891;29;20056;-54
2021/01/13 14:02:37;;;;;;;4.43;2.25;;;;;;;3.48;73.79;99343.50;4848765;29;20069;-55
2021/01/13 14:05:03;;;;;;;5.55;2.80;;;;;;;4.23;72.40;99332.00;4834076;29;20073;-53
2021/01/13 14:07:31;;;;;;;6.88;3.28;;;;;;;3.44;73.62;99344.09;4834270;29;20556;-54
2021/01/13 14:09:56;;;;;;;5.25;2.38;;;;;;;3.35;74.51;99343.38;4825892;29;20074;-53
2021/01/13 14:12:22;;;;;;;6.22;2.30;;;;;;;3.46;74.28;99342.06;4831631;29;20125;-55
2021/01/13 14:14:48;;;;;;;6.75;2.80;;;;;;;3.33;75.33;99333.94;4835628;29;20033;-54
2021/01/13 14:17:14;;;;;;;8.00;2.88;;;;;;;3.22;74.56;99336.13;4829166;29;20233;-55
2021/01/13 14:19:40;;;;;;;5.90;2.60;;;;;;;3.02;75.97;99340.44;4837450;29;20516;-54
2021/01/13 14:22:05;;;;;;;8.55;3.05;;;;;;;3.02;75.78;99350.28;4830953;29;20053;-55
2021/01/13 14:24:31;;;;;;;5.65;3.10;;;;;;;3.01;76.58;99343.31;4829643;29;20061;-54
2021/01/13 14:26:58;;;;;;;7.13;3.35;;;;;;;3.95;80.74;99341.94;4833735;29;20046;-55
2021/01/13 14:29:24;;;;;;;6.80;2.97;;;;;;;3.28;76.34;99339.84;4837289;29;20132;-56
2021/01/13 14:31:49;;;;;;;5.72;2.67;;;;;;;3.21;76.41;99333.63;4838809;29;20170;-54
2021/01/13 14:34:15;;;;;;;6.75;3.30;;;;;;;3.08;76.22;99321.00;4838353;29;20037;-54
2021/01/13 14:36:40;;;;;;;4.75;3.20;;;;;;;3.09;77.51;99324.50;4838656;29;20474;-54
2021/01/13 14:39:06;;;;;;;8.68;3.13;;;;;;;3.33;75.81;99326.75;4831697;29;20057;-54
2021/01/13 14:41:33;;;;;;;12.15;3.58;;;;;;;3.69;74.57;99318.56;4836369;29;20133;-55
2021/01/13 14:43:59;;;;;;;7.40;2.83;;;;;;;3.66;74.56;99315.47;4835023;29;20056;-56
2021/01/13 14:46:26;;;;;;;7.80;3.05;;;;;;;3.40;77.27;99311.59;4833346;29;20050;-55
2021/01/13 14:48:52;;;;;;;7.40;2.80;;;;;;;3.54;76.05;99302.63;4833546;29;20521;-55
2021/01/13 14:51:18;;;;;;;6.43;2.88;;;;;;;4.05;76.33;99312.16;4834390;29;20044;-55
2021/01/13 14:53:43;;;;;;;5.28;2.60;;;;;;;3.36;73.96;99312.97;4831524;29;20540;-56
2021/01/13 14:56:09;;;;;;;4.85;2.15;;;;;;;3.51;73.37;99312.88;4845028;29;20045;-55
2021/01/13 14:58:36;;;;;;;6.75;2.42;;;;;;;4.00;74.84;99291.38;4865675;29;20483;-55
2021/01/13 15:01:04;;;;;;;6.10;3.75;;;;;;;3.24;75.07;99298.50;4847763;29;20488;-55
2021/01/13 15:03:30;;;;;;;7.05;2.67;;;;;;;3.05;74.39;99291.19;4833303;29;20094;-55
2021/01/13 15:05:56;;;;;;;7.07;2.72;;;;;;;2.94;75.39;99295.19;4835314;29;20132;-56
2021/01/13 15:08:23;;;;;;;7.10;2.75;;;;;;;3.62;78.47;99286.44;4830610;29;20165;-55
2021/01/13 15:10:48;;;;;;;8.38;3.03;;;;;;;3.47;74.02;99283.03;4827658;29;20042;-56
2021/01/13 15:13:14;;;;;;;7.40;2.92;;;;;;;3.54;73.60;99283.94;4849113;29;20045;-57
2021/01/13 15:15:41;;;;;;;5.38;2.70;;;;;;;4.14;76.09;99276.19;4849289;29;20041;-56
2021/01/13 15:18:07;;;;;;;11.00;2.90;;;;;;;3.30;74.15;99271.03;4843196;29;20046;-55
2021/01/13 15:20:39;;;;;;;5.55;2.90;;;;;;;3.56;73.70;99275.72;4829917;29;20058;-53
2021/01/13 15:23:04;;;;;;;7.05;3.10;;;;;;;3.27;76.21;99282.94;4846577;29;20117;-55
2021/01/13 15:25:30;;;;;;;6.72;3.33;;;;;;;2.98;74.46;99287.63;4847821;29;20054;-55
2021/01/13 15:27:58;;;;;;;5.10;2.70;;;;;;;2.86;75.87;99296.16;4829558;29;20049;-55
2021/01/13 15:30:26;;;;;;;7.65;3.67;;;;;;;3.40;75.23;99284.03;4834408;29;20050;-56
2021/01/13 15:32:52;;;;;;;6.55;2.97;;;;;;;3.29;73.44;99282.72;4847825;29;20497;-56
2021/01/13 15:35:18;;;;;;;7.28;2.72;;;;;;;3.07;75.15;99281.97;4836504;29;20080;-54
2021/01/13 15:37:49;;;;;;;6.80;2.72;;;;;;;3.23;75.22;99262.16;4833959;29;20046;-55
2021/01/13 15:40:19;;;;;;;7.97;2.90;;;;;;;3.32;74.21;99266.31;4835979;29;20049;-54
2021/01/13 15:42:45;;;;;;;12.00;3.33;;;;;;;3.14;77.76;99255.28;4839029;29;20351;-55
2021/01/13 15:45:13;;;;;;;8.90;3.75;;;;;;;3.07;75.27;99255.25;4836381;29;20457;-54
2021/01/13 15:47:39;;;;;;;8.73;4.22;;;;;;;3.08;74.75;99248.91;4836792;29;20050;-55
2021/01/13 15:50:06;;;;;;;7.00;3.72;;;;;;;3.26;74.47;99248.38;4834039;29;20042;-55
2021/01/13 15:52:46;;;;;;;6.35;3.10;;;;;;;2.70;75.42;99243.03;4834556;29;20128;-54
2021/01/13 15:55:12;;;;;;;4.15;3.03;;;;;;;3.13;77.26;99237.63;4852257;29;20072;-54
2021/01/13 15:57:43;;;;;;;21.85;3.10;;;;;;;3.99;73.62;99231.69;4854119;29;20503;-55
2021/01/13 16:00:09;;;;;;;7.15;2.80;;;;;;;3.68;72.82;99225.22;4852783;29;20156;-55
2021/01/13 16:02:35;;;;;;;4.60;2.60;;;;;;;3.49;73.96;99224.06;4852247;29;20496;-54
2021/01/13 16:05:02;;;;;;;5.97;2.83;;;;;;;3.70;75.90;99221.28;4852887;29;20045;-54
2021/01/13 16:07:28;;;;;;;3.63;2.50;;;;;;;3.25;73.95;99220.84;4852490;29;20532;-55
2021/01/13 16:09:55;;;;;;;4.40;2.30;;;;;;;4.06;75.98;99210.31;4853490;29;20177;-55
2021/01/13 16:12:21;;;;;;;6.43;3.38;;;;;;;3.12;74.12;99204.75;4838393;29;20086;-56
2021/01/13 16:14:47;;;;;;;10.77;3.15;;;;;;;3.28;73.36;99201.78;4838443;29;20050;-55
2021/01/13 16:17:14;;;;;;;8.45;3.40;;;;;;;3.05;76.60;99197.72;4837298;29;20055;-56
2021/01/13 16:19:40;;;;;;;8.80;3.15;;;;;;;2.90;74.79;99195.97;4852061;29;20114;-55
2021/01/13 16:22:07;;;;;;;6.43;2.78;;;;;;;3.18;72.85;99187.13;4836939;29;20436;-54
2021/01/13 16:24:33;;;;;;;5.72;2.85;;;;;;;3.04;74.98;99180.88;4837185;29;20051;-54
2021/01/13 16:26:59;;;;;;;5.00;3.17;;;;;;;3.70;73.60;99178.53;4837783;29;20413;-54
2021/01/13 16:29:25;;;;;;;5.22;2.28;;;;;;;3.59;72.01;99176.41;4851720;29;20037;-54
2021/01/13 16:31:52;;;;;;;4.45;2.80;;;;;;;3.18;73.47;99179.94;4852100;29;20056;-56
2021/01/13 16:34:19;;;;;;;7.30;2.60;;;;;;;2.94;72.09;99164.38;4837282;29;20064;-55
2021/01/13 16:36:49;;;;;;;4.80;2.70;;;;;;;3.38;73.81;99164.00;4852604;29;20037;-55
2021/01/13 16:39:16;;;;;;;6.65;2.38;;;;;;;4.41;77.77;99170.03;4851763;29;20098;-55
2021/01/13 16:41:46;;;;;;;12.07;3.05;;;;;;;3.64;70.91;99157.94;4839656;29;20049;-53
2021/01/13 16:44:23;;;;;;;4.47;2.28;;;;;;;3.26;71.03;99155.72;4838010;29;20575;-56
2021/01/13 16:46:49;;;;;;;4.28;2.90;;;;;;;4.13;70.97;99146.16;4835834;29;20693;-55
2021/01/13 16:49:15;;;;;;;6.43;2.65;;;;;;;3.87;77.10;99134.38;4837174;29;20495;-54
2021/01/13 16:51:52;;;;;;;6.07;2.45;;;;;;;3.77;70.68;99135.78;4838386;29;20056;-55
2021/01/13 16:54:20;;;;;;;4.18;2.20;;;;;;;4.26;69.41;99114.06;4837822;29;20048;-55
2021/01/13 16:56:47;;;;;;;6.75;2.50;;;;;;;3.21;70.79;99112.78;4835881;29;20041;-55